createdAt,value
2018-02-09T00:00:01.002Z,-0.82
2018-02-09T00:01:01.019Z,-0.89
2018-02-09T00:02:01.032Z,-0.81
2018-02-09T00:03:01.050Z,-0.89
2018-02-09T00:04:01.170Z,-0.89
2018-02-09T00:05:01.089Z,-0.80
2018-02-09T00:06:01.152Z,-0.84
2018-02-09T00:07:01.117Z,-0.91
2018-02-09T00:08:01.131Z,-0.89
2018-02-09T00:09:01.151Z,-0.89
2018-02-09T00:10:01.175Z,-0.87
2018-02-09T00:11:01.184Z,-0.97
2018-02-09T00:12:01.203Z,-0.89
2018-02-09T00:13:01.223Z,-0.85
2018-02-09T00:14:01.242Z,-0.82
2018-02-09T00:15:01.260Z,-0.91
2018-02-09T00:16:01.281Z,-0.89
2018-02-09T00:17:01.286Z,-0.85
2018-02-09T00:18:01.312Z,-0.84
2018-02-09T00:19:01.321Z,-0.97
2018-02-09T00:20:01.349Z,-0.93
2018-02-09T00:21:01.369Z,-0.84
2018-02-09T00:22:01.373Z,-0.91
2018-02-09T00:23:01.392Z,-0.85
2018-02-09T00:24:01.436Z,-0.87
2018-02-09T00:25:01.435Z,-0.96
2018-02-09T00:26:01.458Z,-0.93
2018-02-09T00:27:01.463Z,-1.00
2018-02-09T00:28:01.482Z,-1.01
2018-02-09T00:29:01.493Z,-0.99
2018-02-09T00:30:01.527Z,-1.06
2018-02-09T00:31:01.531Z,-1.07
2018-02-09T00:32:01.547Z,-1.04
2018-02-09T00:33:01.566Z,-1.03
2018-02-09T00:34:01.578Z,-1.04
2018-02-09T00:35:01.608Z,-1.00
2018-02-09T00:36:01.619Z,-0.97
2018-02-09T00:37:01.633Z,-1.04
2018-02-09T00:38:01.663Z,-1.04
2018-02-09T00:39:01.669Z,-1.11
2018-02-09T00:40:01.684Z,-1.07
2018-02-09T00:41:01.707Z,-1.01
2018-02-09T00:42:01.719Z,-1.11
2018-02-09T00:43:01.741Z,-1.06
2018-02-09T00:44:01.749Z,-1.07
2018-02-09T00:45:01.778Z,-1.06
2018-02-09T00:46:01.786Z,-1.09
2018-02-09T00:47:01.806Z,-1.09
2018-02-09T00:48:01.825Z,-1.14
2018-02-09T00:49:01.838Z,-1.12
2018-02-09T00:50:01.854Z,-1.15
2018-02-09T00:51:01.872Z,-1.14
2018-02-09T00:52:01.889Z,-1.15
2018-02-09T00:53:01.906Z,-1.14
2018-02-09T00:54:01.921Z,-1.09
2018-02-09T00:55:01.945Z,-1.12
2018-02-09T00:56:01.961Z,-1.27
2018-02-09T00:57:01.980Z,-1.09
2018-02-09T00:58:01.996Z,-1.12
2018-02-09T00:59:02.042Z,-1.14
2018-02-09T01:00:02.083Z,-1.17
2018-02-09T01:01:02.041Z,-1.19
2018-02-09T01:02:02.062Z,-1.15
2018-02-09T01:03:02.075Z,-1.18
2018-02-09T01:04:02.092Z,-1.29
2018-02-09T01:05:02.124Z,-1.21
2018-02-09T01:06:02.150Z,-1.24
2018-02-09T01:07:02.144Z,-1.27
2018-02-09T01:08:02.170Z,-1.27
2018-02-09T01:09:02.180Z,-1.27
2018-02-09T01:10:02.189Z,-1.27
2018-02-09T01:11:02.227Z,-1.27
2018-02-09T01:12:02.223Z,-1.24
2018-02-09T01:13:02.244Z,-1.36
2018-02-09T01:14:02.259Z,-1.19
2018-02-09T01:15:02.280Z,-1.36
2018-02-09T01:16:02.296Z,-1.25
2018-02-09T01:17:02.311Z,-1.36
2018-02-09T01:18:02.397Z,-1.27
2018-02-09T01:19:02.348Z,-1.27
2018-02-09T01:20:02.359Z,-1.25
2018-02-09T01:21:02.386Z,-1.25
2018-02-09T01:22:02.395Z,-1.25
2018-02-09T01:23:02.418Z,-1.36
2018-02-09T01:24:02.429Z,-1.35
2018-02-09T01:25:02.443Z,-1.32
2018-02-09T01:26:02.472Z,-1.36
2018-02-09T01:27:02.482Z,-1.32
2018-02-09T01:28:02.517Z,-1.36
2018-02-09T01:29:02.516Z,-1.36
2018-02-09T01:30:02.533Z,-1.38
2018-02-09T01:31:02.547Z,-1.33
2018-02-09T01:32:02.563Z,-1.27
2018-02-09T01:33:02.585Z,-1.36
2018-02-09T01:34:02.602Z,-1.39
2018-02-09T01:35:02.610Z,-1.36
2018-02-09T01:36:02.641Z,-1.46
2018-02-09T01:37:02.659Z,-1.40
2018-02-09T01:38:02.663Z,-1.51
2018-02-09T01:39:02.688Z,-1.53
2018-02-09T01:40:02.708Z,-1.64
2018-02-09T01:41:02.716Z,-1.60
2018-02-09T01:42:02.733Z,-1.61
2018-02-09T01:43:02.750Z,-1.63
2018-02-09T01:44:02.812Z,-1.54
2018-02-09T01:45:02.785Z,-1.60
2018-02-09T01:46:02.798Z,-1.57
2018-02-09T01:47:02.834Z,-1.48
2018-02-09T01:48:02.833Z,-1.53
2018-02-09T01:49:02.849Z,-1.56
2018-02-09T01:50:02.871Z,-1.58
2018-02-09T01:51:02.880Z,-1.46
2018-02-09T01:52:02.904Z,-1.48
2018-02-09T01:53:02.916Z,-1.45
2018-02-09T01:54:02.945Z,-1.58
2018-02-09T01:55:02.957Z,-1.48
2018-02-09T01:56:02.982Z,-1.58
2018-02-09T01:57:02.987Z,-1.48
2018-02-09T01:58:03.003Z,-1.56
2018-02-09T01:59:03.018Z,-1.45
2018-02-09T02:00:03.038Z,-1.43
2018-02-09T02:01:03.050Z,-1.50
2018-02-09T02:02:03.065Z,-1.57
2018-02-09T02:03:03.089Z,-1.58
2018-02-09T02:04:03.100Z,-1.57
2018-02-09T02:05:03.113Z,-1.57
2018-02-09T02:06:03.139Z,-1.60
2018-02-09T02:07:03.164Z,-1.58
2018-02-09T02:08:03.167Z,-1.61
2018-02-09T02:09:03.190Z,-1.60
2018-02-09T02:10:03.205Z,-1.60
2018-02-09T02:11:03.216Z,-1.68
2018-02-09T02:12:03.232Z,-1.60
2018-02-09T02:13:03.256Z,-1.74
2018-02-09T02:14:03.263Z,-1.71
2018-02-09T02:15:03.281Z,-1.68
2018-02-09T02:16:03.305Z,-1.76
2018-02-09T02:17:03.339Z,-1.63
2018-02-09T02:18:03.339Z,-1.64
2018-02-09T02:19:03.347Z,-1.71
2018-02-09T02:20:03.366Z,-1.61
2018-02-09T02:21:03.389Z,-1.66
2018-02-09T02:22:03.405Z,-1.72
2018-02-09T02:23:03.414Z,-1.66
2018-02-09T02:24:03.441Z,-1.78
2018-02-09T02:25:03.448Z,-1.63
2018-02-09T02:26:03.465Z,-1.64
2018-02-09T02:27:03.486Z,-1.75
2018-02-09T02:28:03.502Z,-1.78
2018-02-09T02:29:03.514Z,-1.78
2018-02-09T02:30:03.529Z,-1.72
2018-02-09T02:31:03.560Z,-1.72
2018-02-09T02:32:03.564Z,-1.76
2018-02-09T02:33:03.584Z,-1.75
2018-02-09T02:34:03.606Z,-1.66
2018-02-09T02:35:03.615Z,-1.82
2018-02-09T02:36:03.634Z,-1.71
2018-02-09T02:37:03.650Z,-1.71
2018-02-09T02:38:03.674Z,-1.69
2018-02-09T02:39:03.687Z,-1.76
2018-02-09T02:40:03.699Z,-1.66
2018-02-09T02:41:03.720Z,-1.74
2018-02-09T02:42:03.756Z,-1.74
2018-02-09T02:43:03.748Z,-1.79
2018-02-09T02:44:03.765Z,-1.74
2018-02-09T02:45:03.783Z,-1.76
2018-02-09T02:46:03.802Z,-1.76
2018-02-09T02:47:03.813Z,-1.81
2018-02-09T02:48:03.845Z,-1.76
2018-02-09T02:49:03.859Z,-1.78
2018-02-09T02:50:03.870Z,-1.86
2018-02-09T02:51:03.881Z,-1.87
2018-02-09T02:52:03.907Z,-1.86
2018-02-09T02:53:03.915Z,-1.84
2018-02-09T02:54:03.930Z,-1.87
2018-02-09T02:55:03.957Z,-1.76
2018-02-09T02:56:03.963Z,-1.89
2018-02-09T02:57:03.978Z,-1.89
2018-02-09T02:58:03.998Z,-1.86
2018-02-09T02:59:04.027Z,-1.90
2018-02-09T03:00:04.035Z,-1.89
2018-02-09T03:01:04.045Z,-1.87
2018-02-09T03:02:04.068Z,-1.87
2018-02-09T03:03:04.090Z,-1.86
2018-02-09T03:04:04.097Z,-1.87
2018-02-09T03:05:04.122Z,-1.86
2018-02-09T03:06:04.134Z,-1.97
2018-02-09T03:07:04.145Z,-1.94
2018-02-09T03:08:04.162Z,-1.97
2018-02-09T03:09:04.178Z,-1.96
2018-02-09T03:10:04.208Z,-1.94
2018-02-09T03:11:04.214Z,-1.92
2018-02-09T03:12:04.225Z,-2.02
2018-02-09T03:13:04.256Z,-1.97
2018-02-09T03:14:04.270Z,-2.00
2018-02-09T03:15:04.274Z,-2.02
2018-02-09T03:16:04.294Z,-1.97
2018-02-09T03:17:04.312Z,-2.00
2018-02-09T03:18:04.327Z,-1.94
2018-02-09T03:19:04.346Z,-2.02
2018-02-09T03:20:04.355Z,-2.04
2018-02-09T03:21:04.386Z,-2.02
2018-02-09T03:22:04.393Z,-2.13
2018-02-09T03:23:04.413Z,-2.18
2018-02-09T03:24:04.424Z,-2.17
2018-02-09T03:25:04.449Z,-2.07
2018-02-09T03:26:04.455Z,-1.96
2018-02-09T03:27:04.483Z,-2.13
2018-02-09T03:28:04.492Z,-2.10
2018-02-09T03:29:04.508Z,-2.07
2018-02-09T03:30:04.522Z,-2.07
2018-02-09T03:31:04.540Z,-2.22
2018-02-09T03:32:04.566Z,-2.18
2018-02-09T03:33:04.615Z,-2.15
2018-02-09T03:34:04.590Z,-2.10
2018-02-09T03:35:04.601Z,-2.08
2018-02-09T03:36:04.629Z,-2.11
2018-02-09T03:37:04.648Z,-2.14
2018-02-09T03:38:04.658Z,-2.13
2018-02-09T03:39:04.671Z,-2.08
2018-02-09T03:40:04.684Z,-2.10
2018-02-09T03:41:04.698Z,-2.15
2018-02-09T03:42:05.630Z,-2.11
2018-02-09T03:43:04.757Z,-2.04
2018-02-09T03:44:04.762Z,-2.15
2018-02-09T03:45:04.768Z,-2.23
2018-02-09T03:46:04.809Z,-2.17
2018-02-09T03:47:04.808Z,-2.18
2018-02-09T03:48:04.814Z,-2.20
2018-02-09T03:49:04.844Z,-2.20
2018-02-09T03:50:04.852Z,-2.13
2018-02-09T03:51:04.863Z,-2.23
2018-02-09T03:52:04.880Z,-2.15
2018-02-09T03:53:04.907Z,-2.15
2018-02-09T03:54:04.927Z,-2.22
2018-02-09T03:55:04.937Z,-2.14
2018-02-09T03:56:04.945Z,-2.20
2018-02-09T03:57:04.976Z,-2.17
2018-02-09T03:58:04.978Z,-2.22
2018-02-09T03:59:05.072Z,-2.15
2018-02-09T04:00:05.018Z,-2.17
2018-02-09T04:01:05.034Z,-2.15
2018-02-09T04:02:05.046Z,-2.22
2018-02-09T04:03:05.057Z,-2.29
2018-02-09T04:04:05.073Z,-2.28
2018-02-09T04:05:05.111Z,-2.23
2018-02-09T04:06:05.108Z,-2.23
2018-02-09T04:07:05.121Z,-2.20
2018-02-09T04:08:05.149Z,-2.26
2018-02-09T04:09:05.162Z,-2.36
2018-02-09T04:10:05.176Z,-2.34
2018-02-09T04:11:05.195Z,-2.33
2018-02-09T04:12:05.220Z,-2.29
2018-02-09T04:13:05.223Z,-2.33
2018-02-09T04:14:05.239Z,-2.34
2018-02-09T04:15:05.254Z,-2.25
2018-02-09T04:16:05.291Z,-2.36
2018-02-09T04:17:05.298Z,-2.36
2018-02-09T04:18:05.300Z,-2.26
2018-02-09T04:19:05.317Z,-2.34
2018-02-09T04:20:05.332Z,-2.29
2018-02-09T04:21:05.358Z,-2.34
2018-02-09T04:22:05.375Z,-2.33
2018-02-09T04:23:05.384Z,-2.32
2018-02-09T04:24:05.400Z,-2.22
2018-02-09T04:25:05.417Z,-2.34
2018-02-09T04:26:05.438Z,-2.40
2018-02-09T04:27:05.454Z,-2.26
2018-02-09T04:28:05.470Z,-2.28
2018-02-09T04:29:05.486Z,-2.32
2018-02-09T04:30:05.495Z,-2.33
2018-02-09T04:31:05.513Z,-2.28
2018-02-09T04:32:05.534Z,-2.39
2018-02-09T04:33:05.554Z,-2.37
2018-02-09T04:34:05.564Z,-2.39
2018-02-09T04:35:05.580Z,-2.40
2018-02-09T04:36:05.601Z,-2.44
2018-02-09T04:37:05.610Z,-2.45
2018-02-09T04:38:05.627Z,-2.39
2018-02-09T04:39:05.652Z,-2.48
2018-02-09T04:40:05.662Z,-2.58
2018-02-09T04:41:05.685Z,-2.51
2018-02-09T04:42:05.694Z,-2.55
2018-02-09T04:43:05.716Z,-2.54
2018-02-09T04:44:05.729Z,-2.55
2018-02-09T04:45:05.748Z,-2.58
2018-02-09T04:46:05.758Z,-2.54
2018-02-09T04:47:05.772Z,-2.52
2018-02-09T04:48:05.788Z,-2.57
2018-02-09T04:49:05.805Z,-2.54
2018-02-09T04:50:05.823Z,-2.63
2018-02-09T04:51:05.838Z,-2.62
2018-02-09T04:52:05.856Z,-2.48
2018-02-09T04:53:05.869Z,-2.62
2018-02-09T04:54:05.886Z,-2.69
2018-02-09T04:55:05.909Z,-2.65
2018-02-09T04:56:05.916Z,-2.55
2018-02-09T04:57:05.987Z,-2.62
2018-02-09T04:58:05.948Z,-2.68
2018-02-09T04:59:05.967Z,-2.69
2018-02-09T05:00:05.987Z,-2.73
2018-02-09T05:01:06.001Z,-2.72
2018-02-09T05:02:06.019Z,-2.66
2018-02-09T05:03:06.030Z,-2.66
2018-02-09T05:04:06.048Z,-2.70
2018-02-09T05:05:06.064Z,-2.65
2018-02-09T05:06:06.085Z,-2.65
2018-02-09T05:07:06.092Z,-2.68
2018-02-09T05:08:06.124Z,-2.62
2018-02-09T05:09:06.125Z,-2.63
2018-02-09T05:10:06.140Z,-2.63
2018-02-09T05:11:06.169Z,-2.63
2018-02-09T05:12:06.174Z,-2.68
2018-02-09T05:13:06.189Z,-2.72
2018-02-09T05:14:06.206Z,-2.73
2018-02-09T05:15:06.224Z,-2.57
2018-02-09T05:16:06.241Z,-2.63
2018-02-09T05:17:06.263Z,-2.54
2018-02-09T05:18:06.272Z,-2.55
2018-02-09T05:19:06.290Z,-2.54
2018-02-09T05:20:06.299Z,-2.58
2018-02-09T05:21:06.317Z,-2.58
2018-02-09T05:22:06.342Z,-2.57
2018-02-09T05:23:06.353Z,-2.55
2018-02-09T05:24:06.366Z,-2.50
2018-02-09T05:25:06.387Z,-2.44
2018-02-09T05:26:06.404Z,-2.40
2018-02-09T05:27:06.414Z,-2.44
2018-02-09T05:28:06.433Z,-2.40
2018-02-09T05:29:06.451Z,-2.36
2018-02-09T05:30:06.463Z,-2.48
2018-02-09T05:31:06.478Z,-2.37
2018-02-09T05:32:06.500Z,-2.45
2018-02-09T05:33:06.509Z,-2.37
2018-02-09T05:34:06.532Z,-2.37
2018-02-09T05:35:06.537Z,-2.45
2018-02-09T05:36:07.117Z,-2.39
2018-02-09T05:37:06.583Z,-2.42
2018-02-09T05:38:06.610Z,-2.42
2018-02-09T05:39:06.608Z,-2.42
2018-02-09T05:40:06.621Z,-2.40
2018-02-09T05:41:06.641Z,-2.39
2018-02-09T05:42:06.654Z,-2.42
2018-02-09T05:43:06.670Z,-2.40
2018-02-09T05:44:06.686Z,-2.47
2018-02-09T05:45:06.705Z,-2.44
2018-02-09T05:46:06.721Z,-2.45
2018-02-09T05:47:06.734Z,-2.42
2018-02-09T05:48:06.759Z,-2.45
2018-02-09T05:49:06.775Z,-2.51
2018-02-09T05:50:06.786Z,-2.57
2018-02-09T05:51:06.813Z,-2.39
2018-02-09T05:52:06.811Z,-2.42
2018-02-09T05:53:06.840Z,-2.39
2018-02-09T05:54:06.847Z,-2.48
2018-02-09T05:55:06.874Z,-2.47
2018-02-09T05:56:06.886Z,-2.42
2018-02-09T05:57:06.899Z,-2.45
2018-02-09T05:58:06.921Z,-2.40
2018-02-09T05:59:06.929Z,-2.42
2018-02-09T06:00:06.950Z,-2.48
2018-02-09T06:01:06.959Z,-2.37
2018-02-09T06:02:07.001Z,-2.47
2018-02-09T06:03:06.986Z,-2.47
2018-02-09T06:04:07.012Z,-2.29
2018-02-09T06:05:07.029Z,-2.29
2018-02-09T06:06:07.060Z,-2.34
2018-02-09T06:07:07.053Z,-2.32
2018-02-09T06:08:07.076Z,-2.32
2018-02-09T06:09:07.089Z,-2.40
2018-02-09T06:10:07.104Z,-2.36
2018-02-09T06:11:07.126Z,-2.32
2018-02-09T06:12:07.135Z,-2.33
2018-02-09T06:13:07.154Z,-2.28
2018-02-09T06:14:07.167Z,-2.36
2018-02-09T06:15:07.191Z,-2.33
2018-02-09T06:16:07.198Z,-2.28
2018-02-09T06:17:07.337Z,-2.33
2018-02-09T06:18:07.237Z,-2.45
2018-02-09T06:19:07.290Z,-2.39
2018-02-09T06:20:07.266Z,-2.34
2018-02-09T06:21:07.288Z,-2.34
2018-02-09T06:22:07.304Z,-2.37
2018-02-09T06:23:07.312Z,-2.32
2018-02-09T06:24:07.330Z,-2.33
2018-02-09T06:25:07.346Z,-2.42
2018-02-09T06:26:07.369Z,-2.45
2018-02-09T06:27:07.377Z,-2.45
2018-02-09T06:28:07.394Z,-2.40
2018-02-09T06:29:07.417Z,-2.39
2018-02-09T06:30:07.427Z,-2.39
2018-02-09T06:31:07.446Z,-2.40
2018-02-09T06:32:07.454Z,-2.36
2018-02-09T06:33:07.485Z,-2.36
2018-02-09T06:34:07.494Z,-2.34
2018-02-09T06:35:07.503Z,-2.39
2018-02-09T06:37:07.537Z,-2.25
2018-02-09T06:38:07.558Z,-2.28
2018-02-09T06:39:07.569Z,-2.15
2018-02-09T06:40:07.594Z,-2.26
2018-02-09T06:41:07.622Z,-2.22
2018-02-09T06:42:07.620Z,-2.15
2018-02-09T06:43:07.636Z,-2.20
2018-02-09T06:44:07.651Z,-2.08
2018-02-09T06:45:07.668Z,-2.18
2018-02-09T06:46:07.685Z,-2.13
2018-02-09T06:47:07.708Z,-2.15
2018-02-09T06:48:07.713Z,-2.11
2018-02-09T06:49:07.738Z,-2.17
2018-02-09T06:50:07.745Z,-2.15
2018-02-09T06:51:07.761Z,-2.15
2018-02-09T06:52:07.787Z,-2.13
2018-02-09T06:53:07.796Z,-2.13
2018-02-09T06:54:07.807Z,-2.04
2018-02-09T06:55:07.835Z,-1.96
2018-02-09T06:56:07.844Z,-2.05
2018-02-09T06:57:07.864Z,-1.96
2018-02-09T06:58:07.883Z,-2.00
2018-02-09T06:59:07.891Z,-1.97
2018-02-09T07:00:07.927Z,-1.94
2018-02-09T07:01:07.926Z,-2.00
2018-02-09T07:02:07.941Z,-1.99
2018-02-09T07:03:07.957Z,-1.99
2018-02-09T07:04:07.977Z,-1.96
2018-02-09T07:05:07.987Z,-1.90
2018-02-09T07:06:08.005Z,-1.81
2018-02-09T07:07:08.021Z,-1.86
2018-02-09T07:08:08.041Z,-1.87
2018-02-09T07:09:08.058Z,-1.90
2018-02-09T07:10:08.074Z,-1.87
2018-02-09T07:11:08.090Z,-1.86
2018-02-09T07:12:08.106Z,-1.78
2018-02-09T07:13:08.121Z,-1.79
2018-02-09T07:14:08.144Z,-1.81
2018-02-09T07:15:08.155Z,-1.68
2018-02-09T07:16:08.169Z,-1.79
2018-02-09T07:17:08.192Z,-1.75
2018-02-09T07:18:08.208Z,-1.68
2018-02-09T07:19:08.215Z,-1.69
2018-02-09T07:20:08.240Z,-1.69
2018-02-09T07:21:08.251Z,-1.82
2018-02-09T07:22:08.265Z,-1.69
2018-02-09T07:23:08.286Z,-1.68
2018-02-09T07:24:08.295Z,-1.71
2018-02-09T07:25:08.315Z,-1.71
2018-02-09T07:26:08.330Z,-1.60
2018-02-09T07:27:08.346Z,-1.64
2018-02-09T07:28:08.372Z,-1.71
2018-02-09T07:29:08.381Z,-1.68
2018-02-09T07:30:08.412Z,-1.64
2018-02-09T07:31:08.419Z,-1.71
2018-02-09T07:32:08.466Z,-1.63
2018-02-09T07:33:08.443Z,-1.76
2018-02-09T07:34:08.471Z,-1.56
2018-02-09T07:35:08.486Z,-1.60
2018-02-09T07:36:08.503Z,-1.60
2018-02-09T07:37:08.521Z,-1.54
2018-02-09T07:38:08.528Z,-1.48
2018-02-09T07:39:08.546Z,-1.50
2018-02-09T07:40:08.562Z,-1.51
2018-02-09T07:41:08.637Z,-1.45
2018-02-09T07:42:08.596Z,-1.42
2018-02-09T07:43:08.625Z,-1.42
2018-02-09T07:44:08.627Z,-1.35
2018-02-09T07:45:08.647Z,-1.35
2018-02-09T07:46:08.662Z,-1.32
2018-02-09T07:47:08.675Z,-1.33
2018-02-09T07:48:08.693Z,-1.38
2018-02-09T07:49:08.710Z,-1.30
2018-02-09T07:50:08.724Z,-1.30
2018-02-09T07:51:08.741Z,-1.27
2018-02-09T07:52:08.765Z,-1.29
2018-02-09T07:53:08.775Z,-1.25
2018-02-09T07:54:09.606Z,-1.25
2018-02-09T07:55:08.811Z,-1.36
2018-02-09T07:56:08.839Z,-1.29
2018-02-09T07:57:08.849Z,-1.27
2018-02-09T07:58:08.859Z,-1.12
2018-02-09T07:59:08.875Z,-1.21
2018-02-09T08:00:08.891Z,-1.11
2018-02-09T08:01:08.908Z,-1.15
2018-02-09T08:02:08.926Z,-1.22
2018-02-09T08:03:08.936Z,-1.21
2018-02-09T08:04:08.958Z,-1.24
2018-02-09T08:05:08.973Z,-1.12
2018-02-09T08:06:08.991Z,-1.12
2018-02-09T08:07:09.025Z,-1.12
2018-02-09T08:08:09.032Z,-1.03
2018-02-09T08:09:09.070Z,-1.07
2018-02-09T08:10:09.063Z,-1.14
2018-02-09T08:11:09.077Z,-1.14
2018-02-09T08:12:09.092Z,-1.11
2018-02-09T08:13:09.121Z,-1.09
2018-02-09T08:14:09.132Z,-0.99
2018-02-09T08:15:09.148Z,-1.01
2018-02-09T08:16:09.159Z,-0.93
2018-02-09T08:17:09.190Z,-0.99
2018-02-09T08:18:09.204Z,-1.09
2018-02-09T08:19:09.213Z,-1.06
2018-02-09T08:20:09.381Z,-1.01
2018-02-09T08:21:09.247Z,-0.96
2018-02-09T08:22:09.266Z,-0.87
2018-02-09T08:23:09.274Z,-0.82
2018-02-09T08:24:09.293Z,-0.89
2018-02-09T08:25:09.312Z,-0.82
2018-02-09T08:26:09.324Z,-0.82
2018-02-09T08:27:09.343Z,-0.84
2018-02-09T08:28:09.375Z,-0.74
2018-02-09T08:29:09.377Z,-0.59
2018-02-09T08:30:09.418Z,-0.72
2018-02-09T08:31:09.419Z,-0.67
2018-02-09T08:32:09.431Z,-0.63
2018-02-09T08:33:09.441Z,-0.66
2018-02-09T08:34:09.462Z,-0.70
2018-02-09T08:35:09.479Z,-0.70
2018-02-09T08:36:09.497Z,-0.75
2018-02-09T08:37:09.513Z,-1.00
2018-02-09T08:38:09.545Z,-1.00
2018-02-09T08:39:09.547Z,-1.15
2018-02-09T08:40:09.570Z,-0.94
2018-02-09T08:41:09.590Z,-0.81
2018-02-09T08:42:09.601Z,-0.74
2018-02-09T08:43:09.623Z,-0.64
2018-02-09T08:44:09.635Z,-0.64
2018-02-09T08:45:09.665Z,-0.57
2018-02-09T08:46:09.669Z,-0.41
2018-02-09T08:47:09.684Z,-0.66
2018-02-09T08:48:09.711Z,-0.67
2018-02-09T08:49:09.717Z,-0.56
2018-02-09T08:50:09.734Z,-0.54
2018-02-09T08:51:09.764Z,-0.36
2018-02-09T08:52:09.777Z,-0.30
2018-02-09T08:53:09.787Z,-0.15
2018-02-09T08:54:09.808Z,-0.17
2018-02-09T08:55:09.829Z,-0.15
2018-02-09T08:56:09.839Z,-0.18
2018-02-09T08:57:09.853Z,-0.09
2018-02-09T08:58:09.871Z,-0.15
2018-02-09T08:59:09.890Z,-0.12
2018-02-09T09:00:09.909Z,-0.03
2018-02-09T09:01:09.934Z,-0.09
2018-02-09T09:02:09.948Z,-0.18
2018-02-09T09:03:09.959Z,-0.07
2018-02-09T09:04:09.977Z,-0.18
2018-02-09T09:05:10.002Z,-0.06
2018-02-09T09:06:10.019Z,-0.02
2018-02-09T09:07:10.043Z,-0.03
2018-02-09T09:08:10.053Z,0.08
2018-02-09T09:09:10.066Z,-0.03
2018-02-09T09:10:10.083Z,0.16
2018-02-09T09:11:10.104Z,0.18
2018-02-09T09:12:10.119Z,0.29
2018-02-09T09:13:10.152Z,0.31
2018-02-09T09:14:10.153Z,0.36
2018-02-09T09:15:10.174Z,0.27
2018-02-09T09:16:10.190Z,0.36
2018-02-09T09:17:10.216Z,0.30
2018-02-09T09:18:10.232Z,0.34
2018-02-09T09:19:10.243Z,0.34
2018-02-09T09:20:10.259Z,0.31
2018-02-09T09:21:10.277Z,0.31
2018-02-09T09:22:10.305Z,0.26
2018-02-09T09:23:10.323Z,0.29
2018-02-09T09:24:10.328Z,0.18
2018-02-09T09:25:10.356Z,0.16
2018-02-09T09:26:10.364Z,0.23
2018-02-09T09:27:10.388Z,0.19
2018-02-09T09:28:10.459Z,-0.03
2018-02-09T09:29:10.422Z,0.00
2018-02-09T09:30:10.445Z,0.02
2018-02-09T09:31:10.459Z,0.02
2018-02-09T09:32:10.479Z,0.15
2018-02-09T09:33:10.490Z,0.19
2018-02-09T09:34:10.512Z,0.24
2018-02-09T09:35:10.531Z,0.33
2018-02-09T09:36:10.559Z,0.19
2018-02-09T09:37:10.565Z,0.20
2018-02-09T09:38:10.580Z,0.27
2018-02-09T09:39:10.604Z,0.34
2018-02-09T09:40:10.620Z,0.39
2018-02-09T09:41:10.643Z,0.40
2018-02-09T09:42:10.764Z,0.37
2018-02-09T09:43:10.679Z,0.37
2018-02-09T09:44:10.695Z,0.45
2018-02-09T09:45:10.705Z,0.55
2018-02-09T09:46:10.725Z,0.47
2018-02-09T09:47:10.745Z,0.30
2018-02-09T09:48:10.758Z,0.37
2018-02-09T09:49:10.785Z,0.51
2018-02-09T09:50:10.806Z,0.59
2018-02-09T09:51:10.816Z,0.61
2018-02-09T09:52:10.830Z,0.64
2018-02-09T09:53:10.846Z,0.70
2018-02-09T09:54:10.870Z,0.78
2018-02-09T09:55:10.894Z,0.78
2018-02-09T09:56:10.901Z,0.76
2018-02-09T09:57:10.934Z,0.78
2018-02-09T09:58:10.940Z,0.81
2018-02-09T09:59:10.958Z,0.70
2018-02-09T10:00:10.981Z,0.68
2018-02-09T10:01:10.994Z,0.78
2018-02-09T10:02:11.025Z,0.77
2018-02-09T10:03:11.032Z,0.78
2018-02-09T10:04:11.052Z,0.88
2018-02-09T10:05:11.075Z,0.88
2018-02-09T10:06:11.085Z,0.77
2018-02-09T10:07:11.113Z,0.81
2018-02-09T10:08:11.237Z,0.84
2018-02-09T10:09:11.159Z,0.86
2018-02-09T10:10:11.217Z,0.94
2018-02-09T10:11:11.172Z,0.86
2018-02-09T10:12:11.207Z,1.03
2018-02-09T10:13:11.215Z,1.12
2018-02-09T10:14:11.234Z,1.22
2018-02-09T10:15:11.262Z,1.27
2018-02-09T10:16:11.278Z,1.28
2018-02-09T10:17:11.290Z,1.45
2018-02-09T10:18:11.325Z,1.45
2018-02-09T10:19:11.321Z,1.66
2018-02-09T10:20:11.349Z,1.61
2018-02-09T10:21:11.374Z,1.70
2018-02-09T10:22:11.386Z,1.39
2018-02-09T10:23:11.403Z,1.60
2018-02-09T10:24:11.423Z,1.93
2018-02-09T10:25:11.435Z,2.14
2018-02-09T10:26:11.467Z,2.23
2018-02-09T10:27:11.474Z,2.44
2018-02-09T10:28:11.496Z,2.55
2018-02-09T10:29:11.506Z,2.72
2018-02-09T10:30:11.550Z,2.77
2018-02-09T10:31:11.550Z,2.44
2018-02-09T10:32:11.579Z,2.30
2018-02-09T10:33:11.598Z,2.64
2018-02-09T10:34:11.612Z,2.87
2018-02-09T10:35:11.624Z,3.03
2018-02-09T10:36:11.644Z,3.24
2018-02-09T10:37:11.664Z,3.33
2018-02-09T10:38:11.709Z,3.33
2018-02-09T10:39:11.708Z,3.78
2018-02-09T10:40:11.735Z,3.64
2018-02-09T10:41:11.756Z,3.96
2018-02-09T10:42:11.765Z,4.06
2018-02-09T10:43:11.791Z,4.27
2018-02-09T10:44:11.824Z,4.00
2018-02-09T10:45:11.856Z,3.78
2018-02-09T10:46:11.856Z,3.86
2018-02-09T10:47:11.881Z,4.07
2018-02-09T10:48:11.909Z,3.95
2018-02-09T10:49:11.935Z,3.91
2018-02-09T10:50:11.961Z,4.14
2018-02-09T10:51:11.983Z,4.14
2018-02-09T10:52:12.020Z,3.61
2018-02-09T10:53:12.027Z,3.82
2018-02-09T10:54:12.055Z,3.77
2018-02-09T10:55:12.077Z,3.92
2018-02-09T10:56:12.098Z,3.61
2018-02-09T10:57:12.134Z,3.86
2018-02-09T10:58:12.147Z,3.96
2018-02-09T10:59:12.171Z,3.82
2018-02-09T11:00:12.198Z,4.28
2018-02-09T11:01:12.224Z,4.30
2018-02-09T11:02:12.248Z,4.56
2018-02-09T11:03:12.283Z,5.05
2018-02-09T11:04:12.301Z,5.31
2018-02-09T11:05:12.337Z,5.33
2018-02-09T11:06:12.364Z,5.23
2018-02-09T11:07:12.372Z,5.07
2018-02-09T11:08:12.402Z,5.07
2018-02-09T11:09:12.425Z,4.66
2018-02-09T11:10:12.450Z,4.84
2018-02-09T11:11:12.472Z,5.40
2018-02-09T11:12:12.562Z,4.42
2018-02-09T11:13:12.526Z,4.89
2018-02-09T11:14:12.548Z,5.08
2018-02-09T11:15:12.580Z,4.53
2018-02-09T11:16:12.603Z,4.22
2018-02-09T11:17:12.627Z,3.88
2018-02-09T11:18:12.650Z,4.16
2018-02-09T11:19:12.679Z,3.96
2018-02-09T11:20:12.712Z,4.22
2018-02-09T11:21:12.728Z,4.14
2018-02-09T11:22:12.757Z,4.32
2018-02-09T11:23:12.799Z,4.34
2018-02-09T11:24:12.806Z,4.36
2018-02-09T11:25:12.841Z,4.49
2018-02-09T11:26:12.856Z,4.82
2018-02-09T11:27:12.871Z,4.82
2018-02-09T11:28:12.901Z,4.39
2018-02-09T11:29:12.934Z,4.13
2018-02-09T11:30:12.949Z,4.18
2018-02-09T11:31:12.992Z,3.63
2018-02-09T11:32:12.999Z,3.36
2018-02-09T11:33:13.067Z,3.30
2018-02-09T11:34:13.052Z,3.37
2018-02-09T11:35:13.069Z,3.19
2018-02-09T11:36:13.089Z,2.94
2018-02-09T11:37:13.120Z,2.65
2018-02-09T11:38:13.172Z,2.76
2018-02-09T11:39:13.159Z,2.69
2018-02-09T11:40:13.210Z,2.70
2018-02-09T11:41:13.214Z,2.47
2018-02-09T11:42:13.348Z,2.61
2018-02-09T11:43:13.255Z,2.33
2018-02-09T11:44:13.284Z,2.37
2018-02-09T11:45:13.297Z,2.62
2018-02-09T11:46:13.322Z,2.44
2018-02-09T11:47:13.340Z,2.55
2018-02-09T11:48:13.360Z,2.70
2018-02-09T11:49:13.384Z,2.68
2018-02-09T11:50:13.408Z,2.80
2018-02-09T11:51:13.427Z,2.76
2018-02-09T11:52:13.453Z,2.88
2018-02-09T11:53:13.468Z,3.01
2018-02-09T11:54:13.502Z,3.29
2018-02-09T11:55:13.612Z,3.36
2018-02-09T11:56:13.536Z,3.19
2018-02-09T11:57:13.581Z,3.16
2018-02-09T11:58:13.578Z,3.24
2018-02-09T11:59:13.607Z,3.08
2018-02-09T12:00:13.622Z,3.05
2018-02-09T12:01:13.660Z,2.88
2018-02-09T12:02:13.662Z,2.68
2018-02-09T12:03:13.699Z,2.79
2018-02-09T12:04:13.705Z,2.82
2018-02-09T12:05:13.728Z,3.05
2018-02-09T12:06:13.766Z,2.91
2018-02-09T12:07:13.769Z,2.95
2018-02-09T12:08:13.795Z,3.16
2018-02-09T12:09:13.819Z,3.24
2018-02-09T12:10:13.843Z,3.26
2018-02-09T12:11:13.847Z,3.34
2018-02-09T12:12:13.872Z,4.22
2018-02-09T12:13:13.901Z,5.33
2018-02-09T12:14:13.912Z,6.52
2018-02-09T12:15:13.938Z,6.74
2018-02-09T12:16:13.959Z,6.20
2018-02-09T12:17:13.976Z,5.64
2018-02-09T12:18:14.002Z,5.62
2018-02-09T12:19:14.022Z,5.34
2018-02-09T12:20:14.043Z,5.00
2018-02-09T12:21:14.072Z,4.63
2018-02-09T12:22:14.089Z,4.48
2018-02-09T12:23:14.113Z,4.32
2018-02-09T12:24:14.145Z,4.49
2018-02-09T12:25:14.156Z,4.63
2018-02-09T12:26:14.180Z,4.83
2018-02-09T12:27:14.205Z,4.89
2018-02-09T12:28:14.227Z,4.92
2018-02-09T12:29:14.253Z,4.67
2018-02-09T12:30:14.272Z,4.48
2018-02-09T12:31:14.290Z,4.70
2018-02-09T12:32:14.315Z,4.58
2018-02-09T12:33:14.341Z,4.39
2018-02-09T12:34:14.358Z,4.21
2018-02-09T12:35:14.381Z,3.73
2018-02-09T12:36:14.405Z,4.06
2018-02-09T12:37:14.426Z,4.25
2018-02-09T12:38:14.448Z,4.22
2018-02-09T12:39:14.467Z,3.58
2018-02-09T12:40:14.489Z,3.71
2018-02-09T12:41:14.523Z,3.50
2018-02-09T12:42:14.537Z,3.48
2018-02-09T12:43:14.558Z,3.52
2018-02-09T12:44:14.592Z,3.41
2018-02-09T12:45:14.602Z,3.30
2018-02-09T12:46:14.620Z,3.48
2018-02-09T12:47:14.643Z,3.52
2018-02-09T12:48:14.674Z,3.56
2018-02-09T12:49:14.688Z,3.45
2018-02-09T12:50:14.710Z,3.43
2018-02-09T12:51:14.736Z,3.50
2018-02-09T12:52:14.755Z,3.41
2018-02-09T12:53:14.780Z,3.31
2018-02-09T12:54:14.810Z,3.19
2018-02-09T12:55:14.825Z,3.27
2018-02-09T12:56:14.845Z,3.27
2018-02-09T12:57:14.858Z,3.18
2018-02-09T12:58:14.880Z,3.26
2018-02-09T12:59:14.904Z,3.15
2018-02-09T13:00:14.921Z,3.26
2018-02-09T13:01:14.941Z,3.15